Time,TemperatureF,DewpointF,PressureIn,WindDirection,WindDirectionDegrees,WindSpeedMPH,WindSpeedGustMPH,Humidity,HourlyPrecipIn,Conditions,Clouds,dailyrainin,SoftwareType,DateUTC
2013-05-03 00:03:00,39.0,-99.9,-100.00,NW,324,10.0,-999.0,-999,0.04,,,0.18,,2013-05-03 05:03:00,
2013-05-03 00:12:00,39.0,-99.9,-100.00,NW,324,10.0,-999.0,-999,0.04,,,0.18,,2013-05-03 05:12:00,
2013-05-03 00:22:00,39.0,-99.9,-100.00,NW,324,10.0,-999.0,-999,0.04,,,0.18,,2013-05-03 05:22:00,
2013-05-03 00:32:00,39.0,-99.9,-100.00,NW,326,11.0,-999.0,-999,0.05,,,0.20,,2013-05-03 05:32:00,
2013-05-03 00:42:00,39.0,-99.9,-100.00,NW,326,11.0,-999.0,-999,0.05,,,0.20,,2013-05-03 05:42:00,
2013-05-03 00:52:00,39.0,-99.9,-100.00,NW,326,11.0,-999.0,-999,0.05,,,0.20,,2013-05-03 05:52:00,
2013-05-03 01:02:00,39.0,-99.9,-100.00,NW,320,11.0,-999.0,-999,0.04,,,0.22,,2013-05-03 06:02:00,
2013-05-03 01:12:00,39.0,-99.9,-100.00,NW,320,11.0,-999.0,-999,0.04,,,0.22,,2013-05-03 06:12:00,
2013-05-03 01:22:00,39.0,-99.9,-100.00,NW,320,11.0,-999.0,-999,0.04,,,0.22,,2013-05-03 06:22:00,
2013-05-03 01:32:00,38.0,-99.9,-100.00,NW,323,10.0,-999.0,-999,0.03,,,0.23,,2013-05-03 06:32:00,
2013-05-03 01:42:00,38.0,-99.9,-100.00,NW,323,10.0,-999.0,-999,0.03,,,0.23,,2013-05-03 06:42:00,
2013-05-03 01:52:00,38.0,-99.9,-100.00,NW,323,10.0,-999.0,-999,0.03,,,0.23,,2013-05-03 06:52:00,
2013-05-03 02:00:00,39.0,-99.9,-100.00,NNW,331,14.0,-999.0,-999,0.01,,,0.24,,2013-05-03 07:00:00,
2013-05-03 02:02:00,38.0,-99.9,-100.00,NW,319,11.0,-999.0,-999,0.02,,,0.24,,2013-05-03 07:02:00,
2013-05-03 02:11:00,38.0,-99.9,-100.00,NW,319,11.0,-999.0,-999,0.02,,,0.24,,2013-05-03 07:11:00,
2013-05-03 02:22:00,38.0,-99.9,-100.00,NW,319,11.0,-999.0,-999,0.02,,,0.24,,2013-05-03 07:22:00,
2013-05-03 02:32:00,39.0,-99.9,-100.00,NNW,331,14.0,-999.0,-999,0.01,,,0.24,,2013-05-03 07:32:00,
2013-05-03 02:42:00,39.0,-99.9,-100.00,NNW,331,14.0,-999.0,-999,0.01,,,0.24,,2013-05-03 07:42:00,
2013-05-03 02:52:00,39.0,-99.9,-100.00,NNW,331,14.0,-999.0,-999,0.01,,,0.24,,2013-05-03 07:52:00,
2013-05-03 03:32:00,39.0,-99.9,-100.00,NNW,329,12.0,-999.0,-999,0.01,,,0.25,,2013-05-03 08:32:00,
2013-05-03 03:42:00,39.0,-99.9,-100.00,NNW,329,12.0,-999.0,-999,0.01,,,0.25,,2013-05-03 08:42:00,
2013-05-03 03:53:00,39.0,-99.9,-100.00,NNW,329,12.0,-999.0,-999,0.01,,,0.25,,2013-05-03 08:53:00,
2013-05-03 04:02:00,39.0,-99.9,-100.00,NW,323,12.0,-999.0,-999,0.00,,,0.25,,2013-05-03 09:02:00,
2013-05-03 04:12:00,39.0,-99.9,-100.00,NW,323,12.0,-999.0,-999,0.00,,,0.25,,2013-05-03 09:12:00,
2013-05-03 04:22:00,39.0,-99.9,-100.00,NW,323,12.0,-999.0,-999,0.00,,,0.25,,2013-05-03 09:22:00,
2013-05-03 04:33:00,39.0,-99.9,-100.00,NW,325,10.0,-999.0,-999,0.00,,,0.25,,2013-05-03 09:33:00,
2013-05-03 04:43:00,39.0,-99.9,-100.00,NW,325,10.0,-999.0,-999,0.00,,,0.25,,2013-05-03 09:43:00,
2013-05-03 04:53:00,39.0,-99.9,-100.00,NW,325,10.0,-999.0,-999,0.00,,,0.25,,2013-05-03 09:53:00,
2013-05-03 05:03:00,38.0,-99.9,-100.00,NW,323,12.0,-999.0,-999,0.01,,,0.26,,2013-05-03 10:03:00,
2013-05-03 05:13:00,38.0,-99.9,-100.00,NW,323,12.0,-999.0,-999,0.01,,,0.26,,2013-05-03 10:13:00,
2013-05-03 05:22:00,38.0,-99.9,-100.00,NW,323,12.0,-999.0,-999,0.01,,,0.26,,2013-05-03 10:22:00,
2013-05-03 05:32:00,38.0,-99.9,-100.00,NW,315,10.0,-999.0,-999,0.06,,,0.31,,2013-05-03 10:32:00,
2013-05-03 05:42:00,38.0,-99.9,-100.00,NW,315,10.0,-999.0,-999,0.06,,,0.31,,2013-05-03 10:42:00,
2013-05-03 05:52:00,38.0,-99.9,-100.00,NW,315,10.0,-999.0,-999,0.06,,,0.31,,2013-05-03 10:52:00,
2013-05-03 06:02:00,38.0,-99.9,-100.00,NW,304,6.0,-999.0,-999,0.08,,,0.34,,2013-05-03 11:02:00,
2013-05-03 06:11:00,38.0,-99.9,-100.00,NW,304,6.0,-999.0,-999,0.08,,,0.34,,2013-05-03 11:11:00,
2013-05-03 06:22:00,38.0,-99.9,-100.00,NW,304,6.0,-999.0,-999,0.08,,,0.34,,2013-05-03 11:22:00,
2013-05-03 06:32:00,38.0,-99.9,-100.00,NW,318,9.0,-999.0,-999,0.08,,,0.39,,2013-05-03 11:32:00,
2013-05-03 06:42:00,38.0,-99.9,-100.00,NW,318,9.0,-999.0,-999,0.08,,,0.39,,2013-05-03 11:42:00,
2013-05-03 06:52:00,38.0,-99.9,-100.00,NW,318,9.0,-999.0,-999,0.08,,,0.39,,2013-05-03 11:52:00,
2013-05-03 07:02:00,38.0,-99.9,-100.00,NW,317,10.0,-999.0,-999,0.08,,,0.42,,2013-05-03 12:02:00,
2013-05-03 07:12:00,38.0,-99.9,-100.00,NW,317,10.0,-999.0,-999,0.08,,,0.42,,2013-05-03 12:12:00,
2013-05-03 07:22:00,38.0,-99.9,-100.00,NW,317,10.0,-999.0,-999,0.08,,,0.42,,2013-05-03 12:22:00,
2013-05-03 07:32:00,38.0,-99.9,-100.00,NNW,330,11.0,-999.0,-999,0.07,,,0.46,,2013-05-03 12:32:00,
2013-05-03 07:42:00,38.0,-99.9,-100.00,NNW,330,11.0,-999.0,-999,0.07,,,0.46,,2013-05-03 12:42:00,
2013-05-03 07:52:00,38.0,-99.9,-100.00,NNW,330,11.0,-999.0,-999,0.07,,,0.46,,2013-05-03 12:52:00,
2013-05-03 08:01:00,37.0,-99.9,-100.00,NW,325,11.0,-999.0,-999,0.09,,,0.51,,2013-05-03 13:01:00,
2013-05-03 08:11:00,37.0,-99.9,-100.00,NW,325,11.0,-999.0,-999,0.09,,,0.51,,2013-05-03 13:11:00,
2013-05-03 08:22:00,37.0,-99.9,-100.00,NW,325,11.0,-999.0,-999,0.09,,,0.51,,2013-05-03 13:22:00,
2013-05-03 08:32:00,38.0,-99.9,-100.00,NW,323,12.0,-999.0,-999,0.11,,,0.57,,2013-05-03 13:32:00,
2013-05-03 08:42:00,38.0,-99.9,-100.00,NW,323,12.0,-999.0,-999,0.11,,,0.57,,2013-05-03 13:42:00,
2013-05-03 08:53:00,38.0,-99.9,-100.00,NW,323,12.0,-999.0,-999,0.11,,,0.57,,2013-05-03 13:53:00,
2013-05-03 09:02:00,39.0,-99.9,-100.00,NNW,334,18.0,-999.0,-999,0.10,,,0.61,,2013-05-03 14:02:00,
2013-05-03 09:11:00,39.0,-99.9,-100.00,NNW,334,18.0,-999.0,-999,0.10,,,0.61,,2013-05-03 14:11:00,
2013-05-03 09:22:00,39.0,-99.9,-100.00,NNW,334,18.0,-999.0,-999,0.10,,,0.61,,2013-05-03 14:22:00,
2013-05-03 09:32:00,39.0,-99.9,-100.00,NNW,336,12.0,-999.0,-999,0.11,,,0.68,,2013-05-03 14:32:00,
2013-05-03 09:42:00,39.0,-99.9,-100.00,NNW,336,12.0,-999.0,-999,0.11,,,0.68,,2013-05-03 14:42:00,
2013-05-03 09:52:00,39.0,-99.9,-100.00,NNW,336,12.0,-999.0,-999,0.11,,,0.68,,2013-05-03 14:52:00,
2013-05-03 10:01:00,39.0,-99.9,-100.00,NNW,330,12.0,-999.0,-999,0.08,,,0.69,,2013-05-03 15:01:00,
2013-05-03 10:11:00,39.0,-99.9,-100.00,NNW,330,12.0,-999.0,-999,0.08,,,0.69,,2013-05-03 15:11:00,
2013-05-03 10:22:00,39.0,-99.9,-100.00,NNW,330,12.0,-999.0,-999,0.08,,,0.69,,2013-05-03 15:22:00,
2013-05-03 10:30:00,39.0,-99.9,-100.00,NNW,329,11.0,-999.0,-999,0.10,,,0.79,,2013-05-03 15:30:00,
2013-05-03 10:33:00,39.0,-99.9,-100.00,NNW,333,9.0,-999.0,-999,0.05,,,0.73,,2013-05-03 15:33:00,
2013-05-03 10:43:00,39.0,-99.9,-100.00,NNW,333,9.0,-999.0,-999,0.05,,,0.73,,2013-05-03 15:43:00,
2013-05-03 10:53:00,39.0,-99.9,-100.00,NNW,333,9.0,-999.0,-999,0.05,,,0.73,,2013-05-03 15:53:00,
2013-05-03 11:03:00,39.0,-99.9,-100.00,NNW,329,11.0,-999.0,-999,0.10,,,0.79,,2013-05-03 16:03:00,
2013-05-03 11:13:00,39.0,-99.9,-100.00,NNW,329,11.0,-999.0,-999,0.10,,,0.79,,2013-05-03 16:13:00,
2013-05-03 11:23:00,39.0,-99.9,-100.00,NNW,329,11.0,-999.0,-999,0.10,,,0.79,,2013-05-03 16:23:00,
2013-05-03 12:02:00,39.0,-99.9,-100.00,NNW,327,11.0,-999.0,-999,0.13,,,0.92,,2013-05-03 17:02:00,
2013-05-03 12:12:00,39.0,-99.9,-100.00,NNW,327,11.0,-999.0,-999,0.13,,,0.92,,2013-05-03 17:12:00,
2013-05-03 12:23:00,39.0,-99.9,-100.00,NNW,327,11.0,-999.0,-999,0.13,,,0.92,,2013-05-03 17:23:00,
2013-05-03 12:32:00,39.0,-99.9,-100.00,NNW,333,10.0,-999.0,-999,0.10,,,0.98,,2013-05-03 17:32:00,
2013-05-03 12:42:00,39.0,-99.9,-100.00,NNW,333,10.0,-999.0,-999,0.10,,,0.98,,2013-05-03 17:42:00,
2013-05-03 12:52:00,39.0,-99.9,-100.00,NNW,333,10.0,-999.0,-999,0.10,,,0.98,,2013-05-03 17:52:00,
2013-05-03 13:01:00,40.0,-99.9,-100.00,NNW,336,13.0,-999.0,-999,0.09,,,1.01,,2013-05-03 18:01:00,
2013-05-03 13:12:00,40.0,-99.9,-100.00,NNW,336,13.0,-999.0,-999,0.09,,,1.01,,2013-05-03 18:12:00,
2013-05-03 13:22:00,40.0,-99.9,-100.00,NNW,336,13.0,-999.0,-999,0.09,,,1.01,,2013-05-03 18:22:00,
2013-05-03 13:32:00,40.0,-99.9,-100.00,NNW,332,11.0,-999.0,-999,0.09,,,1.07,,2013-05-03 18:32:00,
2013-05-03 13:42:00,40.0,-99.9,-100.00,NNW,332,11.0,-999.0,-999,0.09,,,1.07,,2013-05-03 18:42:00,
2013-05-03 13:52:00,40.0,-99.9,-100.00,NNW,332,11.0,-999.0,-999,0.09,,,1.07,,2013-05-03 18:52:00,
2013-05-03 14:02:00,40.0,-99.9,-100.00,NNW,333,12.0,-999.0,-999,0.13,,,1.14,,2013-05-03 19:02:00,
2013-05-03 14:11:00,40.0,-99.9,-100.00,NNW,333,12.0,-999.0,-999,0.13,,,1.14,,2013-05-03 19:11:00,
2013-05-03 14:22:00,40.0,-99.9,-100.00,NNW,333,12.0,-999.0,-999,0.13,,,1.14,,2013-05-03 19:22:00,
2013-05-03 14:32:00,40.0,-99.9,-100.00,NNW,327,11.0,-999.0,-999,0.14,,,1.21,,2013-05-03 19:32:00,
2013-05-03 14:42:00,40.0,-99.9,-100.00,NNW,327,11.0,-999.0,-999,0.14,,,1.21,,2013-05-03 19:42:00,
2013-05-03 14:52:00,40.0,-99.9,-100.00,NNW,327,11.0,-999.0,-999,0.14,,,1.21,,2013-05-03 19:52:00,
2013-05-03 15:02:00,40.0,-99.9,-100.00,NNW,327,13.0,-999.0,-999,0.10,,,1.24,,2013-05-03 20:02:00,
2013-05-03 15:12:00,40.0,-99.9,-100.00,NNW,327,13.0,-999.0,-999,0.10,,,1.24,,2013-05-03 20:12:00,
2013-05-03 15:22:00,40.0,-99.9,-100.00,NNW,327,13.0,-999.0,-999,0.10,,,1.24,,2013-05-03 20:22:00,
2013-05-03 15:32:00,41.0,-99.9,-100.00,NNW,336,11.0,-999.0,-999,0.06,,,1.27,,2013-05-03 20:32:00,
2013-05-03 15:42:00,41.0,-99.9,-100.00,NNW,336,11.0,-999.0,-999,0.06,,,1.27,,2013-05-03 20:42:00,
2013-05-03 15:53:00,41.0,-99.9,-100.00,NNW,336,11.0,-999.0,-999,0.06,,,1.27,,2013-05-03 20:53:00,
2013-05-03 16:02:00,41.0,-99.9,-100.00,NW,319,8.0,-999.0,-999,0.06,,,1.30,,2013-05-03 21:02:00,
2013-05-03 16:11:00,41.0,-99.9,-100.00,NW,319,8.0,-999.0,-999,0.06,,,1.30,,2013-05-03 21:11:00,
2013-05-03 16:22:00,41.0,-99.9,-100.00,NW,319,8.0,-999.0,-999,0.06,,,1.30,,2013-05-03 21:22:00,
2013-05-03 16:30:00,41.0,-99.9,-100.00,NW,323,10.0,-999.0,-999,0.11,,,1.41,,2013-05-03 21:30:00,
2013-05-03 16:33:00,41.0,-99.9,-100.00,NW,320,8.0,-999.0,-999,0.10,,,1.37,,2013-05-03 21:33:00,
2013-05-03 16:43:00,41.0,-99.9,-100.00,NW,320,8.0,-999.0,-999,0.10,,,1.37,,2013-05-03 21:43:00,
2013-05-03 16:53:00,41.0,-99.9,-100.00,NW,320,8.0,-999.0,-999,0.10,,,1.37,,2013-05-03 21:53:00,
2013-05-03 17:03:00,41.0,-99.9,-100.00,NW,323,10.0,-999.0,-999,0.11,,,1.41,,2013-05-03 22:03:00,
2013-05-03 17:13:00,41.0,-99.9,-100.00,NW,323,10.0,-999.0,-999,0.11,,,1.41,,2013-05-03 22:13:00,
2013-05-03 17:22:00,41.0,-99.9,-100.00,NW,323,10.0,-999.0,-999,0.11,,,1.41,,2013-05-03 22:22:00,
2013-05-03 19:32:00,41.0,-99.9,-100.00,NW,316,10.0,-999.0,-999,0.02,,,1.54,,2013-05-04 00:32:00,
2013-05-03 19:42:00,41.0,-99.9,-100.00,NW,316,10.0,-999.0,-999,0.02,,,1.54,,2013-05-04 00:42:00,
2013-05-03 19:52:00,41.0,-99.9,-100.00,NW,316,10.0,-999.0,-999,0.02,,,1.54,,2013-05-04 00:52:00,
2013-05-03 20:01:00,41.0,-99.9,-100.00,NNW,331,11.0,-999.0,-999,0.06,,,1.58,,2013-05-04 01:01:00,
2013-05-03 20:11:00,41.0,-99.9,-100.00,NNW,331,11.0,-999.0,-999,0.06,,,1.58,,2013-05-04 01:11:00,
2013-05-03 20:22:00,41.0,-99.9,-100.00,NNW,331,11.0,-999.0,-999,0.06,,,1.58,,2013-05-04 01:22:00,
2013-05-03 20:32:00,41.0,-99.9,-100.00,NW,324,9.0,-999.0,-999,0.10,,,1.63,,2013-05-04 01:32:00,
2013-05-03 20:42:00,41.0,-99.9,-100.00,NW,324,9.0,-999.0,-999,0.10,,,1.63,,2013-05-04 01:42:00,
2013-05-03 20:52:00,41.0,-99.9,-100.00,NW,324,9.0,-999.0,-999,0.10,,,1.63,,2013-05-04 01:52:00,
2013-05-03 21:02:00,41.0,-99.9,-100.00,NW,314,7.0,-999.0,-999,0.07,,,1.64,,2013-05-04 02:02:00,
2013-05-03 21:11:00,41.0,-99.9,-100.00,NW,314,7.0,-999.0,-999,0.07,,,1.64,,2013-05-04 02:11:00,
2013-05-03 21:22:00,41.0,-99.9,-100.00,NW,314,7.0,-999.0,-999,0.07,,,1.64,,2013-05-04 02:22:00,
2013-05-03 21:32:00,41.0,-99.9,-100.00,West,280,3.0,-999.0,-999,0.16,,,1.79,,2013-05-04 02:32:00,
2013-05-03 21:42:00,41.0,-99.9,-100.00,West,280,3.0,-999.0,-999,0.16,,,1.79,,2013-05-04 02:42:00,
2013-05-03 21:52:00,41.0,-99.9,-100.00,West,280,3.0,-999.0,-999,0.16,,,1.79,,2013-05-04 02:52:00,
2013-05-03 22:02:00,42.0,-99.9,-100.00,West,276,2.0,-999.0,-999,0.17,,,1.81,,2013-05-04 03:02:00,
2013-05-03 22:11:00,42.0,-99.9,-100.00,West,276,2.0,-999.0,-999,0.17,,,1.81,,2013-05-04 03:11:00,
2013-05-03 22:22:00,42.0,-99.9,-100.00,West,276,2.0,-999.0,-999,0.17,,,1.81,,2013-05-04 03:22:00,
2013-05-03 22:33:00,42.0,-99.9,-100.00,NW,311,8.0,-999.0,-999,0.06,,,1.81,,2013-05-04 03:33:00,
2013-05-03 22:43:00,42.0,-99.9,-100.00,NW,311,8.0,-999.0,-999,0.06,,,1.81,,2013-05-04 03:43:00,
2013-05-03 22:53:00,42.0,-99.9,-100.00,NW,311,8.0,-999.0,-999,0.06,,,1.81,,2013-05-04 03:53:00,
2013-05-03 23:02:00,42.0,-99.9,-100.00,NNW,329,10.0,-999.0,-999,0.05,,,1.78,,2013-05-04 04:02:00,
2013-05-03 23:13:00,42.0,-99.9,-100.00,NNW,329,10.0,-999.0,-999,0.05,,,1.78,,2013-05-04 04:13:00,
2013-05-03 23:23:00,42.0,-99.9,-100.00,NNW,329,10.0,-999.0,-999,0.05,,,1.78,,2013-05-04 04:23:00,
2013-05-03 23:33:00,43.0,-99.9,-100.00,NW,324,10.0,-999.0,-999,0.02,,,1.78,,2013-05-04 04:33:00,
2013-05-03 23:43:00,43.0,-99.9,-100.00,NW,324,10.0,-999.0,-999,0.02,,,1.78,,2013-05-04 04:43:00,
2013-05-03 23:53:00,43.0,-99.9,-100.00,NW,324,10.0,-999.0,-999,0.02,,,1.78,,2013-05-04 04:53:00,